Medicine Lake, Minnesota
Current Conditions -  °F | °C
As of 3:53 AM on Sunday 25 Jan 2015 (Local Time) from KMIC Reporting Station
Overcast Overcast  
Wind Chill: 19°   Ceiling: 2000
Heat Index: 28°   Visibility: 10mi
Dew Point: 21°   Wind: 10mph
Humidity: 75%   Direction: 20°NNE
Pressure: 29.82"   Gusts: 20mph
Location:  45.0038°N, 93.4289°W
Report Text: KMIC 250953Z AUTO 02009G17KT 10SM OVC020 M02/M06 A2982 RMK AO2 SLP105 T10221061
Loading
Personal Weather Stations






























Interactive Weather Map New forecast layout! Learn more

10-Day Weather Forecast

Advertisements
Track Severe Weather on mobile